sensor_id;sensor_type;location;lat;lon;timestamp;P1;durP1;ratioP1;P2;durP2;ratioP2
31390;SDS011;18022;45.492;11.548;2022-08-21T00:01:10;3.03;;;1.80;;
31390;SDS011;18022;45.492;11.548;2022-08-21T00:03:38;3.42;;;1.38;;
31390;SDS011;18022;45.492;11.548;2022-08-21T00:06:04;4.93;;;1.45;;
31390;SDS011;18022;45.492;11.548;2022-08-21T00:08:30;4.32;;;1.35;;
31390;SDS011;18022;45.492;11.548;2022-08-21T00:10:56;5.88;;;1.55;;
31390;SDS011;18022;45.492;11.548;2022-08-21T00:13:22;1.50;;;1.40;;
31390;SDS011;18022;45.492;11.548;2022-08-21T00:15:48;7.10;;;1.60;;
31390;SDS011;18022;45.492;11.548;2022-08-21T00:18:14;2.38;;;1.20;;
31390;SDS011;18022;45.492;11.548;2022-08-21T00:20:40;5.47;;;1.50;;
31390;SDS011;18022;45.492;11.548;2022-08-21T00:23:08;3.00;;;2.03;;
31390;SDS011;18022;45.492;11.548;2022-08-21T00:25:34;6.28;;;1.45;;
31390;SDS011;18022;45.492;11.548;2022-08-21T00:28:00;2.50;;;1.80;;
31390;SDS011;18022;45.492;11.548;2022-08-21T00:30:27;3.75;;;1.88;;
31390;SDS011;18022;45.492;11.548;2022-08-21T00:32:53;3.70;;;1.75;;
31390;SDS011;18022;45.492;11.548;2022-08-21T00:35:22;6.85;;;1.80;;
31390;SDS011;18022;45.492;11.548;2022-08-21T00:37:50;6.57;;;1.40;;
31390;SDS011;18022;45.492;11.548;2022-08-21T00:40:17;3.25;;;1.75;;
31390;SDS011;18022;45.492;11.548;2022-08-21T00:42:45;3.75;;;1.80;;
31390;SDS011;18022;45.492;11.548;2022-08-21T00:45:11;5.47;;;1.55;;
31390;SDS011;18022;45.492;11.548;2022-08-21T00:47:37;1.77;;;1.65;;
31390;SDS011;18022;45.492;11.548;2022-08-21T00:50:04;2.28;;;1.60;;
31390;SDS011;18022;45.492;11.548;2022-08-21T00:52:32;7.32;;;1.75;;
31390;SDS011;18022;45.492;11.548;2022-08-21T00:55:00;8.55;;;1.75;;
31390;SDS011;18022;45.492;11.548;2022-08-21T00:57:30;8.20;;;1.88;;
31390;SDS011;18022;45.492;11.548;2022-08-21T01:00:02;3.03;;;1.65;;
31390;SDS011;18022;45.492;11.548;2022-08-21T01:02:32;5.03;;;1.80;;
31390;SDS011;18022;45.492;11.548;2022-08-21T01:04:58;2.03;;;1.60;;
31390;SDS011;18022;45.492;11.548;2022-08-21T01:07:24;3.22;;;1.45;;
31390;SDS011;18022;45.492;11.548;2022-08-21T01:09:50;4.63;;;1.90;;
31390;SDS011;18022;45.492;11.548;2022-08-21T01:12:17;5.45;;;1.25;;
31390;SDS011;18022;45.492;11.548;2022-08-21T01:14:43;2.17;;;1.30;;
31390;SDS011;18022;45.492;11.548;2022-08-21T01:17:10;1.80;;;1.60;;
31390;SDS011;18022;45.492;11.548;2022-08-21T01:19:38;2.88;;;1.35;;
31390;SDS011;18022;45.492;11.548;2022-08-21T01:22:04;4.57;;;1.60;;
31390;SDS011;18022;45.492;11.548;2022-08-21T01:24:31;2.97;;;1.38;;
31390;SDS011;18022;45.492;11.548;2022-08-21T01:26:57;2.65;;;1.90;;
31390;SDS011;18022;45.492;11.548;2022-08-21T01:32:25;2.80;;;1.45;;
31390;SDS011;18022;45.492;11.548;2022-08-21T01:34:51;3.42;;;1.50;;
31390;SDS011;18022;45.492;11.548;2022-08-21T01:37:19;2.93;;;1.73;;
31390;SDS011;18022;45.492;11.548;2022-08-21T01:39:46;2.30;;;1.40;;
31390;SDS011;18022;45.492;11.548;2022-08-21T01:42:13;3.03;;;1.77;;
31390;SDS011;18022;45.492;11.548;2022-08-21T01:44:39;3.28;;;1.65;;
31390;SDS011;18022;45.492;11.548;2022-08-21T01:47:06;8.60;;;2.10;;
31390;SDS011;18022;45.492;11.548;2022-08-21T01:49:35;6.50;;;1.80;;
31390;SDS011;18022;45.492;11.548;2022-08-21T01:52:02;4.25;;;1.65;;
31390;SDS011;18022;45.492;11.548;2022-08-21T01:54:29;4.38;;;1.70;;
31390;SDS011;18022;45.492;11.548;2022-08-21T01:56:55;3.30;;;1.50;;
31390;SDS011;18022;45.492;11.548;2022-08-21T01:59:22;4.55;;;1.50;;
31390;SDS011;18022;45.492;11.548;2022-08-21T02:01:48;4.80;;;1.52;;
31390;SDS011;18022;45.492;11.548;2022-08-21T02:04:15;6.10;;;1.50;;
31390;SDS011;18022;45.492;11.548;2022-08-21T02:06:41;1.80;;;1.40;;
31390;SDS011;18022;45.492;11.548;2022-08-21T02:09:08;2.40;;;1.70;;
31390;SDS011;18022;45.492;11.548;2022-08-21T02:14:01;4.25;;;1.50;;
31390;SDS011;18022;45.492;11.548;2022-08-21T02:16:27;2.40;;;1.42;;
31390;SDS011;18022;45.492;11.548;2022-08-21T02:18:53;3.38;;;1.42;;
31390;SDS011;18022;45.492;11.548;2022-08-21T02:21:19;2.33;;;1.40;;
31390;SDS011;18022;45.492;11.548;2022-08-21T02:23:44;3.83;;;1.33;;
31390;SDS011;18022;45.492;11.548;2022-08-21T02:26:11;3.58;;;1.40;;
31390;SDS011;18022;45.492;11.548;2022-08-21T02:28:37;2.33;;;1.45;;
31390;SDS011;18022;45.492;11.548;2022-08-21T02:31:04;3.63;;;1.35;;
31390;SDS011;18022;45.492;11.548;2022-08-21T02:33:30;1.80;;;1.30;;
31390;SDS011;18022;45.492;11.548;2022-08-21T02:35:56;7.57;;;2.33;;
31390;SDS011;18022;45.492;11.548;2022-08-21T02:38:24;1.67;;;1.10;;
31390;SDS011;18022;45.492;11.548;2022-08-21T02:40:52;8.52;;;1.45;;
31390;SDS011;18022;45.492;11.548;2022-08-21T02:43:19;2.03;;;1.52;;
31390;SDS011;18022;45.492;11.548;2022-08-21T02:45:47;10.55;;;1.52;;
31390;SDS011;18022;45.492;11.548;2022-08-21T02:48:16;6.15;;;1.40;;
31390;SDS011;18022;45.492;11.548;2022-08-21T02:50:51;4.53;;;1.10;;
31390;SDS011;18022;45.492;11.548;2022-08-21T02:53:37;5.25;;;1.58;;
31390;SDS011;18022;45.492;11.548;2022-08-21T02:56:04;5.05;;;1.42;;
31390;SDS011;18022;45.492;11.548;2022-08-21T02:58:34;4.03;;;1.20;;
31390;SDS011;18022;45.492;11.548;2022-08-21T03:01:02;2.65;;;1.27;;
31390;SDS011;18022;45.492;11.548;2022-08-21T03:03:28;1.98;;;1.15;;
31390;SDS011;18022;45.492;11.548;2022-08-21T03:05:54;5.47;;;1.20;;
31390;SDS011;18022;45.492;11.548;2022-08-21T03:08:21;4.50;;;1.33;;
31390;SDS011;18022;45.492;11.548;2022-08-21T03:10:50;3.80;;;1.40;;
31390;SDS011;18022;45.492;11.548;2022-08-21T03:13:16;6.60;;;1.25;;
31390;SDS011;18022;45.492;11.548;2022-08-21T03:15:45;2.38;;;1.30;;
31390;SDS011;18022;45.492;11.548;2022-08-21T03:18:12;4.00;;;1.17;;
31390;SDS011;18022;45.492;11.548;2022-08-21T03:20:39;3.42;;;1.20;;
31390;SDS011;18022;45.492;11.548;2022-08-21T03:23:06;3.53;;;1.27;;
31390;SDS011;18022;45.492;11.548;2022-08-21T03:25:34;3.78;;;1.20;;
31390;SDS011;18022;45.492;11.548;2022-08-21T03:30:26;5.22;;;1.23;;
31390;SDS011;18022;45.492;11.548;2022-08-21T03:32:53;6.07;;;1.33;;
31390;SDS011;18022;45.492;11.548;2022-08-21T03:35:19;4.35;;;1.20;;
31390;SDS011;18022;45.492;11.548;2022-08-21T03:37:45;3.47;;;1.00;;
31390;SDS011;18022;45.492;11.548;2022-08-21T03:40:13;4.65;;;1.40;;
31390;SDS011;18022;45.492;11.548;2022-08-21T03:42:40;3.97;;;1.33;;
31390;SDS011;18022;45.492;11.548;2022-08-21T03:45:06;2.83;;;1.30;;
31390;SDS011;18022;45.492;11.548;2022-08-21T03:47:32;5.88;;;1.30;;
31390;SDS011;18022;45.492;11.548;2022-08-21T03:49:58;6.95;;;1.40;;
31390;SDS011;18022;45.492;11.548;2022-08-21T03:52:24;5.70;;;1.27;;
31390;SDS011;18022;45.492;11.548;2022-08-21T03:54:50;2.60;;;1.17;;
31390;SDS011;18022;45.492;11.548;2022-08-21T03:57:16;4.88;;;1.10;;
31390;SDS011;18022;45.492;11.548;2022-08-21T03:59:43;3.03;;;1.55;;
31390;SDS011;18022;45.492;11.548;2022-08-21T04:02:08;4.45;;;1.40;;
31390;SDS011;18022;45.492;11.548;2022-08-21T04:04:36;6.10;;;1.30;;
31390;SDS011;18022;45.492;11.548;2022-08-21T04:07:02;6.13;;;1.20;;
31390;SDS011;18022;45.492;11.548;2022-08-21T04:09:28;1.35;;;1.25;;
31390;SDS011;18022;45.492;11.548;2022-08-21T04:11:55;7.47;;;1.30;;
31390;SDS011;18022;45.492;11.548;2022-08-21T04:14:21;5.15;;;1.40;;
31390;SDS011;18022;45.492;11.548;2022-08-21T04:16:47;3.20;;;1.40;;
31390;SDS011;18022;45.492;11.548;2022-08-21T04:19:13;2.15;;;1.40;;
31390;SDS011;18022;45.492;11.548;2022-08-21T04:21:40;1.88;;;1.15;;
31390;SDS011;18022;45.492;11.548;2022-08-21T04:24:07;1.40;;;1.20;;
31390;SDS011;18022;45.492;11.548;2022-08-21T04:26:35;3.33;;;1.17;;
31390;SDS011;18022;45.492;11.548;2022-08-21T04:29:02;6.75;;;1.25;;
31390;SDS011;18022;45.492;11.548;2022-08-21T04:31:31;3.83;;;1.23;;
31390;SDS011;18022;45.492;11.548;2022-08-21T04:33:57;4.45;;;1.35;;
31390;SDS011;18022;45.492;11.548;2022-08-21T04:36:23;5.35;;;1.25;;
31390;SDS011;18022;45.492;11.548;2022-08-21T04:38:48;3.42;;;1.85;;
31390;SDS011;18022;45.492;11.548;2022-08-21T04:41:14;2.40;;;1.10;;
31390;SDS011;18022;45.492;11.548;2022-08-21T04:43:40;4.57;;;1.20;;
31390;SDS011;18022;45.492;11.548;2022-08-21T04:46:06;5.75;;;1.52;;
31390;SDS011;18022;45.492;11.548;2022-08-21T04:48:32;2.25;;;1.00;;
31390;SDS011;18022;45.492;11.548;2022-08-21T04:53:50;2.97;;;1.20;;
31390;SDS011;18022;45.492;11.548;2022-08-21T04:57:06;2.97;;;1.10;;
31390;SDS011;18022;45.492;11.548;2022-08-21T04:59:24;5.43;;;1.40;;
31390;SDS011;18022;45.492;11.548;2022-08-21T05:01:56;2.13;;;1.08;;
31390;SDS011;18022;45.492;11.548;2022-08-21T05:04:23;3.33;;;1.27;;
31390;SDS011;18022;45.492;11.548;2022-08-21T05:06:51;3.05;;;1.83;;
31390;SDS011;18022;45.492;11.548;2022-08-21T05:09:21;1.67;;;1.20;;
31390;SDS011;18022;45.492;11.548;2022-08-21T05:11:47;4.60;;;1.40;;
31390;SDS011;18022;45.492;11.548;2022-08-21T05:14:14;2.05;;;1.10;;
31390;SDS011;18022;45.492;11.548;2022-08-21T05:16:40;13.03;;;1.47;;
31390;SDS011;18022;45.492;11.548;2022-08-21T05:19:07;3.08;;;1.05;;
31390;SDS011;18022;45.492;11.548;2022-08-21T05:21:34;5.70;;;1.20;;
31390;SDS011;18022;45.492;11.548;2022-08-21T05:24:00;6.97;;;1.10;;
31390;SDS011;18022;45.492;11.548;2022-08-21T05:26:27;5.47;;;1.50;;
31390;SDS011;18022;45.492;11.548;2022-08-21T05:28:52;1.45;;;0.85;;
31390;SDS011;18022;45.492;11.548;2022-08-21T05:31:18;2.78;;;1.08;;
31390;SDS011;18022;45.492;11.548;2022-08-21T05:33:44;4.05;;;1.00;;
31390;SDS011;18022;45.492;11.548;2022-08-21T05:36:09;4.00;;;1.60;;
31390;SDS011;18022;45.492;11.548;2022-08-21T05:38:35;2.22;;;1.30;;
31390;SDS011;18022;45.492;11.548;2022-08-21T05:41:01;1.38;;;1.08;;
31390;SDS011;18022;45.492;11.548;2022-08-21T05:43:26;6.07;;;1.25;;
31390;SDS011;18022;45.492;11.548;2022-08-21T05:45:52;2.15;;;1.00;;
31390;SDS011;18022;45.492;11.548;2022-08-21T05:48:20;4.75;;;1.05;;
31390;SDS011;18022;45.492;11.548;2022-08-21T05:50:48;6.47;;;2.15;;
31390;SDS011;18022;45.492;11.548;2022-08-21T05:55:41;2.45;;;1.23;;
31390;SDS011;18022;45.492;11.548;2022-08-21T05:58:07;4.50;;;1.20;;
31390;SDS011;18022;45.492;11.548;2022-08-21T06:00:33;5.07;;;1.15;;
31390;SDS011;18022;45.492;11.548;2022-08-21T06:02:59;3.72;;;1.00;;
31390;SDS011;18022;45.492;11.548;2022-08-21T06:05:25;3.80;;;0.95;;
31390;SDS011;18022;45.492;11.548;2022-08-21T06:07:51;2.15;;;1.00;;
31390;SDS011;18022;45.492;11.548;2022-08-21T06:10:17;2.60;;;1.13;;
31390;SDS011;18022;45.492;11.548;2022-08-21T06:12:43;2.92;;;1.00;;
31390;SDS011;18022;45.492;11.548;2022-08-21T06:15:09;1.70;;;1.05;;
31390;SDS011;18022;45.492;11.548;2022-08-21T06:17:35;2.45;;;0.70;;
31390;SDS011;18022;45.492;11.548;2022-08-21T06:20:01;0.90;;;0.90;;
31390;SDS011;18022;45.492;11.548;2022-08-21T06:22:28;2.22;;;0.90;;
31390;SDS011;18022;45.492;11.548;2022-08-21T06:24:55;5.05;;;0.98;;
31390;SDS011;18022;45.492;11.548;2022-08-21T06:27:21;1.67;;;0.90;;
31390;SDS011;18022;45.492;11.548;2022-08-21T06:29:47;3.03;;;1.05;;
31390;SDS011;18022;45.492;11.548;2022-08-21T06:32:13;5.43;;;0.90;;
31390;SDS011;18022;45.492;11.548;2022-08-21T06:34:39;4.50;;;0.90;;
31390;SDS011;18022;45.492;11.548;2022-08-21T06:37:05;5.13;;;1.08;;
31390;SDS011;18022;45.492;11.548;2022-08-21T06:39:32;3.08;;;0.80;;
31390;SDS011;18022;45.492;11.548;2022-08-21T06:41:58;3.63;;;1.00;;
31390;SDS011;18022;45.492;11.548;2022-08-21T06:44:24;1.63;;;0.93;;
31390;SDS011;18022;45.492;11.548;2022-08-21T06:46:50;2.20;;;1.23;;
31390;SDS011;18022;45.492;11.548;2022-08-21T06:49:16;4.95;;;0.93;;
31390;SDS011;18022;45.492;11.548;2022-08-21T06:51:41;0.95;;;0.70;;
31390;SDS011;18022;45.492;11.548;2022-08-21T06:54:07;3.47;;;1.30;;
31390;SDS011;18022;45.492;11.548;2022-08-21T06:56:33;4.25;;;1.30;;
31390;SDS011;18022;45.492;11.548;2022-08-21T06:59:02;1.83;;;0.90;;
31390;SDS011;18022;45.492;11.548;2022-08-21T07:01:28;3.42;;;1.20;;
31390;SDS011;18022;45.492;11.548;2022-08-21T07:03:53;1.42;;;1.33;;
31390;SDS011;18022;45.492;11.548;2022-08-21T07:06:19;3.50;;;1.13;;
31390;SDS011;18022;45.492;11.548;2022-08-21T07:08:45;1.70;;;0.90;;
31390;SDS011;18022;45.492;11.548;2022-08-21T07:11:11;3.78;;;1.00;;
31390;SDS011;18022;45.492;11.548;2022-08-21T07:13:42;2.25;;;1.45;;
31390;SDS011;18022;45.492;11.548;2022-08-21T07:16:07;1.38;;;0.98;;
31390;SDS011;18022;45.492;11.548;2022-08-21T07:18:33;1.65;;;1.00;;
31390;SDS011;18022;45.492;11.548;2022-08-21T07:21:00;0.70;;;0.70;;
31390;SDS011;18022;45.492;11.548;2022-08-21T07:23:30;1.75;;;0.80;;
31390;SDS011;18022;45.492;11.548;2022-08-21T07:25:58;2.45;;;0.70;;
31390;SDS011;18022;45.492;11.548;2022-08-21T07:28:25;1.57;;;0.83;;
31390;SDS011;18022;45.492;11.548;2022-08-21T07:30:52;0.82;;;0.82;;
31390;SDS011;18022;45.492;11.548;2022-08-21T07:33:20;1.13;;;0.90;;
31390;SDS011;18022;45.492;11.548;2022-08-21T07:35:46;1.08;;;0.80;;
31390;SDS011;18022;45.492;11.548;2022-08-21T07:38:12;1.45;;;0.70;;
31390;SDS011;18022;45.492;11.548;2022-08-21T07:40:38;1.52;;;0.90;;
31390;SDS011;18022;45.492;11.548;2022-08-21T07:43:03;1.93;;;1.10;;
31390;SDS011;18022;45.492;11.548;2022-08-21T07:45:29;0.50;;;0.50;;
31390;SDS011;18022;45.492;11.548;2022-08-21T07:47:55;1.35;;;0.50;;
31390;SDS011;18022;45.492;11.548;2022-08-21T07:50:21;1.23;;;0.60;;
31390;SDS011;18022;45.492;11.548;2022-08-21T07:52:47;0.82;;;0.82;;
31390;SDS011;18022;45.492;11.548;2022-08-21T07:55:14;1.17;;;0.60;;
31390;SDS011;18022;45.492;11.548;2022-08-21T07:57:42;3.13;;;0.70;;
31390;SDS011;18022;45.492;11.548;2022-08-21T08:00:11;0.82;;;0.65;;
31390;SDS011;18022;45.492;11.548;2022-08-21T08:02:38;1.42;;;0.47;;
31390;SDS011;18022;45.492;11.548;2022-08-21T08:05:05;0.85;;;0.70;;
31390;SDS011;18022;45.492;11.548;2022-08-21T08:07:33;3.40;;;0.70;;
31390;SDS011;18022;45.492;11.548;2022-08-21T08:09:59;0.82;;;0.60;;
31390;SDS011;18022;45.492;11.548;2022-08-21T08:12:25;1.55;;;0.60;;
31390;SDS011;18022;45.492;11.548;2022-08-21T08:15:03;0.60;;;0.60;;
31390;SDS011;18022;45.492;11.548;2022-08-21T08:17:31;2.47;;;0.65;;
31390;SDS011;18022;45.492;11.548;2022-08-21T08:19:57;1.85;;;0.60;;
31390;SDS011;18022;45.492;11.548;2022-08-21T08:22:24;0.75;;;0.50;;
31390;SDS011;18022;45.492;11.548;2022-08-21T08:24:50;1.45;;;0.70;;
31390;SDS011;18022;45.492;11.548;2022-08-21T08:27:16;0.50;;;0.40;;
31390;SDS011;18022;45.492;11.548;2022-08-21T08:29:42;0.63;;;0.63;;
31390;SDS011;18022;45.492;11.548;2022-08-21T08:32:09;0.67;;;0.50;;
31390;SDS011;18022;45.492;11.548;2022-08-21T08:34:35;0.63;;;0.63;;
31390;SDS011;18022;45.492;11.548;2022-08-21T08:37:03;1.95;;;0.50;;
31390;SDS011;18022;45.492;11.548;2022-08-21T08:39:30;2.25;;;0.80;;
31390;SDS011;18022;45.492;11.548;2022-08-21T08:42:42;3.22;;;0.70;;
31390;SDS011;18022;45.492;11.548;2022-08-21T08:44:58;0.73;;;0.73;;
31390;SDS011;18022;45.492;11.548;2022-08-21T08:47:28;0.70;;;0.50;;
31390;SDS011;18022;45.492;11.548;2022-08-21T08:50:02;2.10;;;0.60;;
31390;SDS011;18022;45.492;11.548;2022-08-21T08:55:08;0.85;;;0.50;;
31390;SDS011;18022;45.492;11.548;2022-08-21T08:57:46;0.70;;;0.60;;
31390;SDS011;18022;45.492;11.548;2022-08-21T09:00:14;0.50;;;0.50;;
31390;SDS011;18022;45.492;11.548;2022-08-21T09:02:42;0.85;;;0.57;;
31390;SDS011;18022;45.492;11.548;2022-08-21T09:05:18;2.05;;;0.60;;
31390;SDS011;18022;45.492;11.548;2022-08-21T09:19:32;0.82;;;0.60;;
31390;SDS011;18022;45.492;11.548;2022-08-21T09:27:37;0.77;;;0.70;;
31390;SDS011;18022;45.492;11.548;2022-08-21T09:30:04;1.08;;;0.70;;
31390;SDS011;18022;45.492;11.548;2022-08-21T09:32:31;4.43;;;0.60;;
31390;SDS011;18022;45.492;11.548;2022-08-21T09:38:11;1.13;;;0.50;;
31390;SDS011;18022;45.492;11.548;2022-08-21T09:43:17;1.73;;;0.60;;
31390;SDS011;18022;45.492;11.548;2022-08-21T09:45:45;0.68;;;0.50;;
31390;SDS011;18022;45.492;11.548;2022-08-21T09:48:23;0.50;;;0.50;;
31390;SDS011;18022;45.492;11.548;2022-08-21T09:50:50;0.60;;;0.50;;
31390;SDS011;18022;45.492;11.548;2022-08-21T09:58:44;0.75;;;0.52;;
31390;SDS011;18022;45.492;11.548;2022-08-21T10:01:21;3.50;;;0.57;;
31390;SDS011;18022;45.492;11.548;2022-08-21T10:03:48;0.65;;;0.52;;
31390;SDS011;18022;45.492;11.548;2022-08-21T10:06:27;2.67;;;0.95;;
31390;SDS011;18022;45.492;11.548;2022-08-21T10:09:03;0.60;;;0.60;;
31390;SDS011;18022;45.492;11.548;2022-08-21T10:11:31;0.75;;;0.70;;
31390;SDS011;18022;45.492;11.548;2022-08-21T10:19:43;1.05;;;0.50;;
31390;SDS011;18022;45.492;11.548;2022-08-21T10:22:34;0.68;;;0.50;;
31390;SDS011;18022;45.492;11.548;2022-08-21T10:25:21;0.30;;;0.30;;
31390;SDS011;18022;45.492;11.548;2022-08-21T10:28:09;0.40;;;0.40;;
31390;SDS011;18022;45.492;11.548;2022-08-21T10:30:39;1.40;;;0.20;;
31390;SDS011;18022;45.492;11.548;2022-08-21T10:47:46;0.35;;;0.30;;
31390;SDS011;18022;45.492;11.548;2022-08-21T10:55:57;0.55;;;0.30;;
31390;SDS011;18022;45.492;11.548;2022-08-21T10:58:31;0.55;;;0.35;;
31390;SDS011;18022;45.492;11.548;2022-08-21T11:01:14;2.28;;;0.73;;
31390;SDS011;18022;45.492;11.548;2022-08-21T11:03:53;1.08;;;0.40;;
31390;SDS011;18022;45.492;11.548;2022-08-21T11:06:31;1.00;;;0.43;;
31390;SDS011;18022;45.492;11.548;2022-08-21T11:08:58;2.88;;;0.30;;
31390;SDS011;18022;45.492;11.548;2022-08-21T11:11:36;0.50;;;0.50;;
31390;SDS011;18022;45.492;11.548;2022-08-21T11:14:15;0.80;;;0.32;;
31390;SDS011;18022;45.492;11.548;2022-08-21T11:16:53;0.43;;;0.40;;
31390;SDS011;18022;45.492;11.548;2022-08-21T11:19:33;0.93;;;0.90;;
31390;SDS011;18022;45.492;11.548;2022-08-21T11:22:22;0.45;;;0.45;;
31390;SDS011;18022;45.492;11.548;2022-08-21T11:27:31;0.40;;;0.40;;
31390;SDS011;18022;45.492;11.548;2022-08-21T11:30:04;0.47;;;0.30;;
31390;SDS011;18022;45.492;11.548;2022-08-21T11:38:15;1.77;;;0.32;;
31390;SDS011;18022;45.492;11.548;2022-08-21T11:43:46;0.30;;;0.30;;
31390;SDS011;18022;45.492;11.548;2022-08-21T11:51:35;0.30;;;0.30;;
31390;SDS011;18022;45.492;11.548;2022-08-21T11:56:54;1.45;;;0.20;;
31390;SDS011;18022;45.492;11.548;2022-08-21T11:59:36;0.75;;;0.30;;
31390;SDS011;18022;45.492;11.548;2022-08-21T12:02:09;0.38;;;0.30;;
31390;SDS011;18022;45.492;11.548;2022-08-21T12:04:51;1.23;;;0.32;;
31390;SDS011;18022;45.492;11.548;2022-08-21T12:07:31;0.28;;;0.20;;
31390;SDS011;18022;45.492;11.548;2022-08-21T12:10:04;0.30;;;0.30;;
31390;SDS011;18022;45.492;11.548;2022-08-21T12:12:36;1.10;;;0.38;;
31390;SDS011;18022;45.492;11.548;2022-08-21T12:20:45;0.25;;;0.20;;
31390;SDS011;18022;45.492;11.548;2022-08-21T12:23:48;0.40;;;0.40;;
31390;SDS011;18022;45.492;11.548;2022-08-21T12:29:14;0.20;;;0.20;;
31390;SDS011;18022;45.492;11.548;2022-08-21T12:36:58;1.55;;;0.30;;
31390;SDS011;18022;45.492;11.548;2022-08-21T12:39:29;0.82;;;0.20;;
31390;SDS011;18022;45.492;11.548;2022-08-21T12:42:00;0.20;;;0.20;;
31390;SDS011;18022;45.492;11.548;2022-08-21T12:47:03;0.20;;;0.20;;
31390;SDS011;18022;45.492;11.548;2022-08-21T12:49:48;0.30;;;0.30;;
31390;SDS011;18022;45.492;11.548;2022-08-21T12:52:30;0.68;;;0.30;;
31390;SDS011;18022;45.492;11.548;2022-08-21T12:54:59;0.20;;;0.20;;
31390;SDS011;18022;45.492;11.548;2022-08-21T12:57:27;0.20;;;0.20;;
31390;SDS011;18022;45.492;11.548;2022-08-21T13:02:26;0.52;;;0.40;;
31390;SDS011;18022;45.492;11.548;2022-08-21T13:04:56;0.82;;;0.40;;
31390;SDS011;18022;45.492;11.548;2022-08-21T13:07:31;0.28;;;0.10;;
31390;SDS011;18022;45.492;11.548;2022-08-21T13:10:06;1.03;;;0.30;;
31390;SDS011;18022;45.492;11.548;2022-08-21T13:12:41;1.13;;;0.30;;
31390;SDS011;18022;45.492;11.548;2022-08-21T13:15:07;0.50;;;0.32;;
31390;SDS011;18022;45.492;11.548;2022-08-21T13:17:35;2.05;;;0.30;;
31390;SDS011;18022;45.492;11.548;2022-08-21T13:20:06;0.30;;;0.30;;
31390;SDS011;18022;45.492;11.548;2022-08-21T13:22:45;0.30;;;0.30;;
31390;SDS011;18022;45.492;11.548;2022-08-21T13:25:13;0.20;;;0.20;;
31390;SDS011;18022;45.492;11.548;2022-08-21T13:27:41;0.20;;;0.20;;
31390;SDS011;18022;45.492;11.548;2022-08-21T13:32:38;0.25;;;0.25;;
31390;SDS011;18022;45.492;11.548;2022-08-21T13:35:09;0.35;;;0.35;;
31390;SDS011;18022;45.492;11.548;2022-08-21T13:37:42;1.60;;;0.30;;
31390;SDS011;18022;45.492;11.548;2022-08-21T13:40:10;0.35;;;0.35;;
31390;SDS011;18022;45.492;11.548;2022-08-21T13:42:42;0.60;;;0.40;;
31390;SDS011;18022;45.492;11.548;2022-08-21T13:45:14;0.55;;;0.20;;
31390;SDS011;18022;45.492;11.548;2022-08-21T13:47:48;1.40;;;0.35;;
31390;SDS011;18022;45.492;11.548;2022-08-21T13:50:14;0.30;;;0.20;;
31390;SDS011;18022;45.492;11.548;2022-08-21T13:52:48;1.40;;;0.65;;
31390;SDS011;18022;45.492;11.548;2022-08-21T13:55:20;0.40;;;0.40;;
31390;SDS011;18022;45.492;11.548;2022-08-21T13:57:46;0.95;;;0.30;;
31390;SDS011;18022;45.492;11.548;2022-08-21T14:00:19;0.85;;;0.32;;
31390;SDS011;18022;45.492;11.548;2022-08-21T14:02:50;1.38;;;0.30;;
31390;SDS011;18022;45.492;11.548;2022-08-21T14:07:50;1.17;;;0.35;;
31390;SDS011;18022;45.492;11.548;2022-08-21T14:10:23;0.70;;;0.40;;
31390;SDS011;18022;45.492;11.548;2022-08-21T14:13:01;0.68;;;0.40;;
31390;SDS011;18022;45.492;11.548;2022-08-21T14:15:29;1.02;;;0.50;;
31390;SDS011;18022;45.492;11.548;2022-08-21T14:18:07;0.20;;;0.20;;
31390;SDS011;18022;45.492;11.548;2022-08-21T14:20:38;0.30;;;0.30;;
31390;SDS011;18022;45.492;11.548;2022-08-21T14:23:04;0.20;;;0.20;;
31390;SDS011;18022;45.492;11.548;2022-08-21T14:25:40;0.40;;;0.30;;
31390;SDS011;18022;45.492;11.548;2022-08-21T14:28:24;0.57;;;0.20;;
31390;SDS011;18022;45.492;11.548;2022-08-21T14:30:53;0.85;;;0.20;;
31390;SDS011;18022;45.492;11.548;2022-08-21T14:33:25;0.88;;;0.73;;
31390;SDS011;18022;45.492;11.548;2022-08-21T14:35:53;0.28;;;0.20;;
31390;SDS011;18022;45.492;11.548;2022-08-21T14:38:20;3.70;;;0.40;;
31390;SDS011;18022;45.492;11.548;2022-08-21T14:40:49;0.45;;;0.40;;
31390;SDS011;18022;45.492;11.548;2022-08-21T14:43:17;0.35;;;0.35;;
31390;SDS011;18022;45.492;11.548;2022-08-21T14:45:44;0.95;;;0.30;;
31390;SDS011;18022;45.492;11.548;2022-08-21T14:48:11;1.07;;;0.50;;
31390;SDS011;18022;45.492;11.548;2022-08-21T14:50:37;0.47;;;0.40;;
31390;SDS011;18022;45.492;11.548;2022-08-21T14:53:03;1.02;;;0.40;;
31390;SDS011;18022;45.492;11.548;2022-08-21T14:55:29;1.85;;;0.45;;
31390;SDS011;18022;45.492;11.548;2022-08-21T14:58:16;0.40;;;0.40;;
31390;SDS011;18022;45.492;11.548;2022-08-21T15:00:42;0.33;;;0.33;;
31390;SDS011;18022;45.492;11.548;2022-08-21T15:03:08;2.15;;;0.35;;
31390;SDS011;18022;45.492;11.548;2022-08-21T15:05:34;1.55;;;0.40;;
31390;SDS011;18022;45.492;11.548;2022-08-21T15:08:00;0.50;;;0.43;;
31390;SDS011;18022;45.492;11.548;2022-08-21T15:10:26;0.57;;;0.40;;
31390;SDS011;18022;45.492;11.548;2022-08-21T15:12:54;0.68;;;0.40;;
31390;SDS011;18022;45.492;11.548;2022-08-21T15:15:20;0.40;;;0.40;;
31390;SDS011;18022;45.492;11.548;2022-08-21T15:17:46;1.55;;;0.40;;
31390;SDS011;18022;45.492;11.548;2022-08-21T15:20:12;1.20;;;0.40;;
31390;SDS011;18022;45.492;11.548;2022-08-21T15:22:38;1.75;;;0.55;;
31390;SDS011;18022;45.492;11.548;2022-08-21T15:25:04;0.70;;;0.32;;
31390;SDS011;18022;45.492;11.548;2022-08-21T15:27:30;1.17;;;0.35;;
31390;SDS011;18022;45.492;11.548;2022-08-21T15:29:56;0.22;;;0.20;;
31390;SDS011;18022;45.492;11.548;2022-08-21T15:32:24;0.60;;;0.40;;
31390;SDS011;18022;45.492;11.548;2022-08-21T15:34:52;0.82;;;0.40;;
31390;SDS011;18022;45.492;11.548;2022-08-21T15:37:19;1.00;;;0.50;;
31390;SDS011;18022;45.492;11.548;2022-08-21T15:39:44;0.82;;;0.40;;
31390;SDS011;18022;45.492;11.548;2022-08-21T15:42:10;0.80;;;0.50;;
31390;SDS011;18022;45.492;11.548;2022-08-21T15:44:40;0.85;;;0.50;;
31390;SDS011;18022;45.492;11.548;2022-08-21T15:47:09;0.47;;;0.40;;
31390;SDS011;18022;45.492;11.548;2022-08-21T15:49:38;1.00;;;0.60;;
31390;SDS011;18022;45.492;11.548;2022-08-21T15:52:04;0.40;;;0.40;;
31390;SDS011;18022;45.492;11.548;2022-08-21T15:54:30;0.95;;;0.60;;
31390;SDS011;18022;45.492;11.548;2022-08-21T15:56:56;1.40;;;0.57;;
31390;SDS011;18022;45.492;11.548;2022-08-21T15:59:22;1.27;;;0.50;;
31390;SDS011;18022;45.492;11.548;2022-08-21T16:01:50;1.48;;;0.60;;
31390;SDS011;18022;45.492;11.548;2022-08-21T16:04:24;0.90;;;0.60;;
31390;SDS011;18022;45.492;11.548;2022-08-21T16:06:51;1.13;;;0.63;;
31390;SDS011;18022;45.492;11.548;2022-08-21T16:09:18;4.75;;;0.70;;
31390;SDS011;18022;45.492;11.548;2022-08-21T16:11:44;2.90;;;0.52;;
31390;SDS011;18022;45.492;11.548;2022-08-21T16:14:14;1.08;;;0.45;;
31390;SDS011;18022;45.492;11.548;2022-08-21T16:16:40;1.08;;;0.50;;
31390;SDS011;18022;45.492;11.548;2022-08-21T16:19:06;0.43;;;0.43;;
31390;SDS011;18022;45.492;11.548;2022-08-21T16:21:33;1.08;;;0.45;;
31390;SDS011;18022;45.492;11.548;2022-08-21T16:24:00;1.98;;;0.50;;
31390;SDS011;18022;45.492;11.548;2022-08-21T16:26:26;3.70;;;0.60;;
31390;SDS011;18022;45.492;11.548;2022-08-21T16:28:53;0.57;;;0.50;;
31390;SDS011;18022;45.492;11.548;2022-08-21T16:31:22;1.02;;;0.60;;
31390;SDS011;18022;45.492;11.548;2022-08-21T16:33:50;0.73;;;0.50;;
31390;SDS011;18022;45.492;11.548;2022-08-21T16:36:18;3.97;;;0.70;;